Time;durP1;ratioP1;P1;durP2;ratioP2;P2;SDS_P1;SDS_P2;PMS_P1;PMS_P2;Temp;Humidity;BMP_temperature;BMP_pressure;BME280_temperature;BME280_humidity;BME280_pressure;Samples;Min_cycle;Max_cycle;Signal;HPM_P1;HPM_P2
2021/12/03 00:01:27;;;;;;;;;;;;;;;-3.06;68.80;96105.63;6397575;27;20415;-63
2021/12/03 00:04:31;;;;;;;;;;;;;;;-3.02;69.19;96117.53;6397270;27;20375;-63
2021/12/03 00:07:33;;;;;;;;;;;;;;;-3.05;69.66;96118.47;6397478;27;19923;-62
2021/12/03 00:10:37;;;;;;;;;;;;;;;-3.04;69.77;96122.72;6398346;27;19923;-63
2021/12/03 00:13:43;;;;;;;;;;;;;;;-2.78;68.67;96132.38;6398094;27;20021;-63
2021/12/03 00:16:44;;;;;;;;;;;;;;;-2.72;69.09;96137.41;6397291;27;20384;-62
2021/12/03 00:19:48;;;;;;;;;;;;;;;-2.59;68.55;96131.94;6397598;27;19927;-63
2021/12/03 00:22:54;;;;;;;;;;;;;;;-2.65;67.97;96132.09;6397597;27;19927;-64
2021/12/03 00:25:56;;;;;;;;;;;;;;;-2.86;68.73;96124.03;6396726;27;20007;-63
2021/12/03 00:29:01;;;;;;;;;;;;;;;-2.60;67.99;96119.97;6380004;27;19976;-64
2021/12/03 00:32:02;;;;;;;;;;;;;;;-2.67;68.64;96115.84;6397769;27;19923;-63
2021/12/03 00:35:04;;;;;;;;;;;;;;;-2.63;68.61;96123.47;6396880;27;19923;-63
2021/12/03 00:38:05;;;;;;;;;;;;;;;-2.62;68.41;96132.88;6378149;27;20433;-63
2021/12/03 00:41:14;;;;;;;;;;;;;;;-2.69;68.90;96135.63;6397453;27;19927;-63
2021/12/03 00:44:19;;;;;;;;;;;;;;;-2.71;68.68;96139.09;6397609;27;19922;-63
2021/12/03 00:47:23;;;;;;;;;;;;;;;-2.78;69.71;96137.53;6397540;27;20308;-64
2021/12/03 00:50:27;;;;;;;;;;;;;;;-2.64;68.70;96133.78;6397590;27;19972;-63
2021/12/03 00:53:28;;;;;;;;;;;;;;;-2.77;69.23;96146.97;6397398;27;19927;-63
2021/12/03 00:56:31;;;;;;;;;;;;;;;-2.67;68.93;96139.00;6397203;27;19930;-65
2021/12/03 00:59:33;;;;;;;;;;;;;;;-2.69;69.57;96135.63;6396235;27;19919;-64
2021/12/03 01:02:34;;;;;;;;;;;;;;;-2.79;69.50;96143.56;6398991;27;19923;-64
2021/12/03 01:05:35;;;;;;;;;;;;;;;-2.55;68.99;96146.41;6402836;27;20428;-63
2021/12/03 01:08:37;;;;;;;;;;;;;;;-2.69;69.18;96153.66;6401708;27;19923;-63
2021/12/03 01:11:38;;;;;;;;;;;;;;;-2.60;68.74;96161.16;6401866;27;19956;-63
2021/12/03 01:14:42;;;;;;;;;;;;;;;-2.42;68.31;96160.69;6402442;27;20017;-63
2021/12/03 01:17:45;;;;;;;;;;;;;;;-2.34;67.97;96157.94;6402261;27;19923;-63
2021/12/03 01:20:52;;;;;;;;;;;;;;;-2.41;67.96;96158.97;6401897;27;19923;-64
2021/12/03 01:23:54;;;;;;;;;;;;;;;-2.29;67.48;96154.34;6401374;27;19926;-63
2021/12/03 01:26:55;;;;;;;;;;;;;;;-2.31;67.06;96158.69;6383725;27;19931;-63
2021/12/03 01:29:59;;;;;;;;;;;;;;;-2.11;66.25;96149.59;6402168;27;19923;-63
2021/12/03 01:33:00;;;;;;;;;;;;;;;-1.90;65.36;96154.16;6401945;27;19923;-64
2021/12/03 01:36:04;;;;;;;;;;;;;;;-1.72;63.77;96147.66;6401815;27;19923;-63
2021/12/03 01:39:09;;;;;;;;;;;;;;;-1.57;62.37;96151.53;6402040;27;19926;-63
2021/12/03 01:42:14;;;;;;;;;;;;;;;-1.62;62.96;96150.81;6401953;27;19923;-63
2021/12/03 01:45:17;;;;;;;;;;;;;;;-1.65;62.70;96164.66;6401709;27;19923;-63
2021/12/03 01:48:18;;;;;;;;;;;;;;;-1.49;62.82;96157.31;6400660;27;19923;-63
2021/12/03 01:51:19;;;;;;;;;;;;;;;-1.58;62.80;96167.91;6400745;27;19963;-63
2021/12/03 01:54:25;;;;;;;;;;;;;;;-1.51;62.63;96160.84;6401640;27;20014;-63
2021/12/03 01:57:26;;;;;;;;;;;;;;;-1.62;63.24;96149.06;6401518;27;19923;-63
2021/12/03 02:00:58;;;;;;;;;;;;;;;-1.76;63.77;96166.69;6401456;27;19923;-64
2021/12/03 02:04:00;;;;;;;;;;;;;;;-1.94;64.35;96170.59;6378821;27;19923;-63
2021/12/03 02:07:04;;;;;;;;;;;;;;;-1.77;64.40;96174.47;6401186;27;19983;-64
2021/12/03 02:10:06;;;;;;;;;;;;;;;-1.72;64.42;96177.78;6400397;27;19923;-63
2021/12/03 02:13:08;;;;;;;;;;;;;;;-1.67;63.86;96181.03;6400963;27;19923;-64
2021/12/03 02:16:09;;;;;;;;;;;;;;;-1.60;62.40;96203.22;6399748;27;19934;-63
2021/12/03 02:19:10;;;;;;;;;;;;;;;-1.60;62.22;96198.06;6399790;27;19930;-64
2021/12/03 02:22:15;;;;;;;;;;;;;;;-1.54;60.92;96215.94;6400605;27;19923;-63
2021/12/03 02:25:20;;;;;;;;;;;;;;;-1.60;61.43;96209.22;6400866;27;19946;-63
2021/12/03 02:28:22;;;;;;;;;;;;;;;-1.53;61.00;96207.31;6399852;27;19923;-63
2021/12/03 02:31:24;;;;;;;;;;;;;;;-1.55;60.98;96211.69;6399808;27;20500;-63
2021/12/03 02:34:25;;;;;;;;;;;;;;;-1.52;60.89;96216.75;6399874;27;19932;-63
2021/12/03 02:37:27;;;;;;;;;;;;;;;-1.54;60.68;96215.94;6399205;27;19926;-63
2021/12/03 02:40:28;;;;;;;;;;;;;;;-1.51;60.51;96223.59;6399519;27;19927;-63
2021/12/03 02:43:30;;;;;;;;;;;;;;;-1.27;58.61;96219.50;6399661;27;19930;-62
2021/12/03 02:46:31;;;;;;;;;;;;;;;-1.31;58.24;96201.53;6399703;27;19930;-64
2021/12/03 02:49:37;;;;;;;;;;;;;;;-1.17;58.33;96220.06;6399229;27;20303;-64
2021/12/03 02:52:38;;;;;;;;;;;;;;;-1.36;58.06;96214.56;6399136;27;20003;-63
2021/12/03 02:55:42;;;;;;;;;;;;;;;-1.47;59.09;96209.75;6400034;27;19923;-64
2021/12/03 02:58:46;;;;;;;;;;;;;;;-1.51;59.24;96212.44;6398594;27;19929;-64
2021/12/03 03:01:47;;;;;;;;;;;;;;;-1.25;58.50;96216.84;6399963;27;19923;-63
2021/12/03 03:04:51;;;;;;;;;;;;;;;-1.26;57.82;96204.84;6399892;27;19923;-64
2021/12/03 03:07:52;;;;;;;;;;;;;;;-1.36;58.57;96228.34;6398543;27;19923;-63
2021/12/03 03:11:02;;;;;;;;;;;;;;;-1.42;58.59;96223.34;6399430;27;19923;-63
2021/12/03 03:14:05;;;;;;;;;;;;;;;-1.21;57.97;96228.78;6399577;27;20311;-64
2021/12/03 03:17:06;;;;;;;;;;;;;;;-1.19;57.35;96234.75;6398298;27;20388;-63
2021/12/03 03:20:08;;;;;;;;;;;;;;;-1.15;57.43;96238.94;6398961;27;19923;-63
2021/12/03 03:23:12;;;;;;;;;;;;;;;-1.15;57.83;96231.19;6398277;27;20387;-64
2021/12/03 03:26:16;;;;;;;;;;;;;;;-1.20;58.19;96231.31;6398705;27;20372;-63
2021/12/03 03:29:21;;;;;;;;;;;;;;;-1.40;58.66;96226.72;6398743;27;19923;-64
2021/12/03 03:32:25;;;;;;;;;;;;;;;-1.34;58.85;96230.03;6398771;27;19923;-63
2021/12/03 03:35:27;;;;;;;;;;;;;;;-1.23;59.06;96217.66;6397666;27;20281;-63
2021/12/03 03:38:30;;;;;;;;;;;;;;;-1.28;59.24;96224.69;6398614;27;19919;-63
2021/12/03 03:41:31;;;;;;;;;;;;;;;-1.48;59.35;96228.66;6397534;27;20415;-63
2021/12/03 03:44:35;;;;;;;;;;;;;;;-1.56;59.67;96228.03;6398653;27;19927;-63
2021/12/03 03:47:39;;;;;;;;;;;;;;;-1.45;59.39;96228.59;6398710;27;19919;-63
2021/12/03 03:50:40;;;;;;;;;;;;;;;-1.34;58.65;96230.03;6397522;27;20284;-62
2021/12/03 03:53:42;;;;;;;;;;;;;;;-1.21;57.40;96233.97;6398560;27;20288;-63
2021/12/03 03:56:44;;;;;;;;;;;;;;;-1.44;58.13;96245.78;6398011;27;19923;-63
2021/12/03 03:59:47;;;;;;;;;;;;;;;-1.47;58.02;96253.59;6397830;27;19935;-63
2021/12/03 04:02:51;;;;;;;;;;;;;;;-1.17;56.56;96246.72;6398523;27;20303;-65
2021/12/03 04:05:55;;;;;;;;;;;;;;;-1.25;56.13;96246.09;6397093;27;19926;-64
2021/12/03 04:08:56;;;;;;;;;;;;;;;-1.29;55.40;96251.41;6398261;27;19923;-63
2021/12/03 04:11:57;;;;;;;;;;;;;;;-1.32;55.83;96243.75;6397105;27;19930;-64
2021/12/03 04:14:59;;;;;;;;;;;;;;;-1.47;56.50;96245.88;6397231;27;19923;-63
2021/12/03 04:18:02;;;;;;;;;;;;;;;-1.54;56.32;96254.66;6397983;27;19923;-63
2021/12/03 04:21:06;;;;;;;;;;;;;;;-1.43;56.16;96242.28;6397749;27;20439;-63
2021/12/03 04:24:07;;;;;;;;;;;;;;;-1.48;56.47;96264.78;6397998;27;19930;-63
2021/12/03 04:27:08;;;;;;;;;;;;;;;-1.56;56.80;96287.38;6397822;27;20421;-63
2021/12/03 04:30:14;;;;;;;;;;;;;;;-1.64;56.17;96268.69;6397520;27;20403;-63
2021/12/03 04:33:15;;;;;;;;;;;;;;;-1.54;55.65;96257.22;6395875;27;19929;-64
2021/12/03 04:36:19;;;;;;;;;;;;;;;-1.63;55.98;96266.06;6396443;27;19923;-63
2021/12/03 04:39:22;;;;;;;;;;;;;;;-1.47;55.84;96251.03;6397473;27;19923;-63
2021/12/03 04:42:25;;;;;;;;;;;;;;;-1.88;57.26;96285.63;6397401;27;19923;-63
2021/12/03 04:45:30;;;;;;;;;;;;;;;-1.78;57.52;96286.22;6396967;27;19923;-63
2021/12/03 04:48:31;;;;;;;;;;;;;;;-1.65;57.05;96321.16;6396706;27;20291;-64
2021/12/03 04:51:32;;;;;;;;;;;;;;;-1.67;56.92;96310.91;6397541;27;20281;-64
2021/12/03 04:54:34;;;;;;;;;;;;;;;-1.81;57.45;96324.13;6396544;27;20005;-63
2021/12/03 04:57:40;;;;;;;;;;;;;;;-1.56;56.09;96317.50;6397138;27;19927;-64
2021/12/03 05:00:43;;;;;;;;;;;;;;;-1.78;57.34;96330.94;6395531;27;19923;-62
2021/12/03 05:03:47;;;;;;;;;;;;;;;-1.72;57.06;96329.94;6397316;27;20303;-62
2021/12/03 05:07:04;;;;;;;;;;;;;;;-1.87;57.96;96329.44;6397218;27;19923;-63
2021/12/03 05:10:06;;;;;;;;;;;;;;;-1.75;56.76;96335.19;6396124;27;19984;-63
2021/12/03 05:13:15;;;;;;;;;;;;;;;-1.69;56.79;96337.59;6397060;27;19923;-63
2021/12/03 05:16:16;;;;;;;;;;;;;;;-1.48;56.64;96346.53;6396999;27;19930;-64
2021/12/03 05:19:20;;;;;;;;;;;;;;;-1.38;55.69;96346.25;6396043;27;19930;-64
2021/12/03 05:22:23;;;;;;;;;;;;;;;-1.60;56.54;96338.22;6396144;27;19923;-63
2021/12/03 05:25:28;;;;;;;;;;;;;;;-1.45;55.94;96347.28;6396678;27;19922;-63
2021/12/03 05:28:34;;;;;;;;;;;;;;;-1.52;56.48;96360.41;6397015;27;20456;-65
2021/12/03 05:31:37;;;;;;;;;;;;;;;-1.74;56.84;96347.19;6396737;27;19930;-64
2021/12/03 05:34:41;;;;;;;;;;;;;;;-1.72;56.83;96348.84;6396802;27;19923;-65
2021/12/03 05:37:45;;;;;;;;;;;;;;;-1.82;57.22;96363.69;6396757;27;19923;-63
2021/12/03 05:40:48;;;;;;;;;;;;;;;-1.74;56.52;96349.75;6396712;27;19923;-65
2021/12/03 05:43:52;;;;;;;;;;;;;;;-1.68;56.12;96339.28;6395706;27;19923;-64
2021/12/03 05:46:53;;;;;;;;;;;;;;;-1.55;55.79;96353.59;6396512;27;19923;-64
2021/12/03 05:49:54;;;;;;;;;;;;;;;-1.68;56.05;96354.75;6400968;27;19948;-64
2021/12/03 05:52:57;;;;;;;;;;;;;;;-1.60;55.60;96363.16;6382083;27;20083;-63
2021/12/03 05:55:59;;;;;;;;;;;;;;;-1.61;55.69;96375.22;6400454;27;20019;-64
2021/12/03 05:59:03;;;;;;;;;;;;;;;-1.59;55.60;96380.31;6401124;27;20406;-63
2021/12/03 06:02:07;;;;;;;;;;;;;;;-1.49;54.75;96380.97;6400371;27;19984;-65
2021/12/03 06:05:08;;;;;;;;;;;;;;;-1.48;54.41;96378.31;6401041;27;19930;-64
2021/12/03 06:08:10;;;;;;;;;;;;;;;-1.44;54.59;96374.81;6401041;27;19922;-64
2021/12/03 06:11:11;;;;;;;;;;;;;;;-1.19;53.97;96384.47;6399795;27;19930;-64
2021/12/03 06:14:12;;;;;;;;;;;;;;;-1.14;53.37;96361.97;6400523;27;19923;-64
2021/12/03 06:17:13;;;;;;;;;;;;;;;-1.09;52.61;96365.28;6399756;27;19937;-65
2021/12/03 06:20:17;;;;;;;;;;;;;;;-0.95;52.79;96339.91;6400710;27;20014;-66
2021/12/03 06:23:20;;;;;;;;;;;;;;;-1.16;52.51;96389.53;6400654;27;19923;-64
2021/12/03 06:26:22;;;;;;;;;;;;;;;-1.01;52.58;96376.25;6399787;27;19923;-63
2021/12/03 06:29:23;;;;;;;;;;;;;;;-1.32;53.08;96378.78;6400268;27;19923;-65
2021/12/03 06:32:28;;;;;;;;;;;;;;;-1.07;52.57;96373.00;6400403;27;19927;-62
2021/12/03 06:35:32;;;;;;;;;;;;;;;-1.22;53.53;96384.53;6400415;27;19926;-63
2021/12/03 06:38:33;;;;;;;;;;;;;;;-1.08;53.18;96387.59;6398820;27;20376;-63
2021/12/03 06:41:34;;;;;;;;;;;;;;;-1.18;53.66;96387.03;6400405;27;19929;-64
2021/12/03 06:44:38;;;;;;;;;;;;;;;-1.31;54.46;96358.97;6399608;27;20310;-64
2021/12/03 06:47:39;;;;;;;;;;;;;;;-1.08;53.25;96366.94;6400181;27;20311;-65
2021/12/03 06:50:40;;;;;;;;;;;;;;;-1.05;52.98;96382.34;6400095;27;19919;-65
2021/12/03 06:53:55;;;;;;;;;;;;;;;-1.15;53.85;96375.75;6381336;27;19972;-66
2021/12/03 06:56:59;;;;;;;;;;;;;;;-0.98;53.19;96403.72;6400044;27;19967;-64
2021/12/03 07:00:03;;;;;;;;;;;;;;;-0.93;52.91;96387.22;6398188;27;19984;-63
2021/12/03 07:03:04;;;;;;;;;;;;;;;-0.86;53.59;96385.28;6399665;27;19923;-63
2021/12/03 07:06:06;;;;;;;;;;;;;;;-0.77;52.92;96377.28;6399795;27;19923;-64
2021/12/03 07:09:10;;;;;;;;;;;;;;;-0.24;52.80;96376.63;6380367;27;19984;-64
2021/12/03 07:12:11;;;;;;;;;;;;;;;2.33;47.81;96376.25;6398469;27;19953;-63
2021/12/03 07:15:12;;;;;;;;;;;;;;;5.76;40.70;96374.94;6399379;27;19922;-63
2021/12/03 07:18:14;;;;;;;;;;;;;;;8.47;35.23;96377.31;6399339;27;20075;-65
2021/12/03 07:21:17;;;;;;;;;;;;;;;9.61;32.03;96393.38;6399292;27;19927;-63
2021/12/03 07:24:18;;;;;;;;;;;;;;;10.10;30.31;96403.09;6399182;27;20324;-64
2021/12/03 07:27:25;;;;;;;;;;;;;;;10.54;29.25;96401.78;6399139;27;19930;-64
2021/12/03 07:30:31;;;;;;;;;;;;;;;11.41;28.85;96407.66;6399152;27;20447;-64
2021/12/03 07:33:32;;;;;;;;;;;;;;;12.22;27.70;96409.28;6397715;27;20308;-64
2021/12/03 07:36:33;;;;;;;;;;;;;;;12.88;27.00;96405.81;6398800;27;19923;-63
2021/12/03 07:39:34;;;;;;;;;;;;;;;12.66;24.72;96389.09;6398573;27;19930;-63
2021/12/03 07:42:35;;;;;;;;;;;;;;;11.96;25.80;96395.53;6397700;27;19923;-64
2021/12/03 07:45:37;;;;;;;;;;;;;;;11.75;26.00;96411.19;6398520;27;19927;-63
2021/12/03 07:48:46;;;;;;;;;;;;;;;11.06;26.34;96419.00;6398445;27;19923;-64
2021/12/03 07:51:50;;;;;;;;;;;;;;;11.36;26.39;96409.78;6397459;27;19922;-64
2021/12/03 07:54:51;;;;;;;;;;;;;;;11.71;26.60;96419.44;6396830;27;20237;-63
2021/12/03 07:57:52;;;;;;;;;;;;;;;12.51;25.02;96409.63;6379092;27;20018;-65
2021/12/03 08:00:54;;;;;;;;;;;;;;;12.57;24.92;96417.06;6396955;27;20017;-64
2021/12/03 08:03:55;;;;;;;;;;;;;;;11.98;25.13;96425.25;6396953;27;19946;-63
2021/12/03 08:06:59;;;;;;;;;;;;;;;10.95;26.55;96426.84;6396922;27;20067;-62
2021/12/03 08:10:00;;;;;;;;;;;;;;;11.28;26.19;96406.88;6396103;27;19923;-63
2021/12/03 08:13:05;;;;;;;;;;;;;;;11.09;26.75;96421.41;6397872;27;20021;-63
2021/12/03 08:16:09;;;;;;;;;;;;;;;11.10;26.43;96402.03;6397874;27;20011;-64
2021/12/03 08:19:12;;;;;;;;;;;;;;;11.06;26.50;96397.09;6396316;27;19933;-63
2021/12/03 08:22:15;;;;;;;;;;;;;;;11.24;26.91;96425.56;6396788;27;20308;-63
2021/12/03 08:25:19;;;;;;;;;;;;;;;12.23;25.44;96425.94;6397016;27;19930;-63
2021/12/03 08:28:22;;;;;;;;;;;;;;;12.50;24.61;96420.31;6397835;27;19923;-66
2021/12/03 08:31:26;;;;;;;;;;;;;;;11.85;25.57;96411.28;6397602;27;19923;-64
2021/12/03 08:34:27;;;;;;;;;;;;;;;11.21;26.46;96412.63;6397448;27;19930;-63
2021/12/03 08:37:28;;;;;;;;;;;;;;;10.69;26.98;96405.91;6396476;27;19980;-64
2021/12/03 08:40:32;;;;;;;;;;;;;;;10.94;26.68;96410.22;6396046;27;19923;-64
2021/12/03 08:43:36;;;;;;;;;;;;;;;11.01;26.50;96400.06;6397081;27;20019;-63
2021/12/03 08:46:38;;;;;;;;;;;;;;;11.41;26.27;96408.47;6396723;27;20492;-63
2021/12/03 08:55:54;;;;;;;;;;;;;;;11.75;25.69;96440.19;6396287;27;19972;-63
2021/12/03 08:58:58;;;;;;;;;;;;;;;11.54;25.93;96413.66;6397248;27;20017;-63
2021/12/03 09:01:59;;;;;;;;;;;;;;;11.04;26.37;96399.00;6395918;27;20423;-63
2021/12/03 09:05:00;;;;;;;;;;;;;;;8.54;29.37;96415.28;6396602;27;19948;-65
2021/12/03 09:08:01;;;;;;;;;;;;;;;5.77;34.41;96408.78;6396698;27;20356;-62
2021/12/03 09:11:02;;;;;;;;;;;;;;;4.54;36.97;96410.72;6396047;27;19923;-64
2021/12/03 09:14:10;;;;;;;;;;;;;;;3.45;39.09;96415.72;6396445;27;19931;-64
2021/12/03 09:23:46;;;;;;;;;;;;;;;2.87;42.04;96434.66;6398179;27;20300;-63
2021/12/03 09:26:47;;;;;;;;;;;;;;;2.47;43.23;96446.66;6402063;27;20303;-63
2021/12/03 09:29:54;;;;;;;;;;;;;;;2.16;44.29;96457.38;6402112;27;19980;-63
2021/12/03 09:32:57;;;;;;;;;;;;;;;1.92;44.97;96464.34;6400289;27;20360;-63
2021/12/03 09:36:03;;;;;;;;;;;;;;;1.97;45.38;96462.41;6402064;27;19923;-64
2021/12/03 09:39:04;;;;;;;;;;;;;;;1.87;45.47;96455.88;6400704;27;19930;-63
2021/12/03 09:42:08;;;;;;;;;;;;;;;1.78;46.61;96441.50;6401668;27;19923;-64
2021/12/03 09:45:13;;;;;;;;;;;;;;;1.56;47.11;96441.44;6401095;27;19927;-64
2021/12/03 09:48:28;;;;;;;;;;;;;;;1.19;48.40;96439.28;6401362;27;19923;-63
2021/12/03 09:51:40;;;;;;;;;;;;;;;0.95;49.69;96448.75;6400989;27;20311;-64
2021/12/03 09:54:46;;;;;;;;;;;;;;;0.38;50.34;96430.75;6400908;27;19930;-63
2021/12/03 10:01:22;;;;;;;;;;;;;;;0.31;51.43;96447.38;6400781;27;19946;-64
2021/12/03 10:09:18;;;;;;;;;;;;;;;0.04;52.60;96445.63;6400967;27;19923;-64
2021/12/03 10:20:55;;;;;;;;;;;;;;;-0.08;54.80;96455.44;6399380;27;20292;-63
2021/12/03 10:25:26;;;;;;;;;;;;;;;-0.08;55.02;96460.63;6400864;27;19987;-63
2021/12/03 10:35:10;;;;;;;;;;;;;;;0.05;55.59;96480.94;6399209;27;19930;-64
2021/12/03 10:48:32;;;;;;;;;;;;;;;0.18;55.37;96487.44;6357317;27;19923;-66
2021/12/03 10:52:00;;;;;;;;;;;;;;;0.13;55.72;96489.31;6399514;27;19927;-66
2021/12/03 10:55:41;;;;;;;;;;;;;;;0.04;56.35;96494.78;6400069;27;20406;-67
2021/12/03 10:59:06;;;;;;;;;;;;;;;-0.09;56.74;96495.09;6380998;27;19930;-63
2021/12/03 11:33:31;;;;;;;;;;;;;;;-0.13;58.11;96506.44;6397933;27;19930;-64
2021/12/03 14:05:03;;;;;;;;;;;;;;;-0.73;68.29;96544.25;6395682;27;19923;-65
2021/12/03 14:43:43;;;;;;;;;;;;;;;0.37;65.21;96579.16;6400167;27;19930;-65
2021/12/03 14:47:11;;;;;;;;;;;;;;;0.54;65.08;96593.34;6400424;27;19923;-64
2021/12/03 14:56:34;;;;;;;;;;;;;;;0.52;65.05;96605.50;6399707;27;19930;-65
2021/12/03 14:59:38;;;;;;;;;;;;;;;0.51;65.21;96620.19;6399129;27;19949;-64
2021/12/03 15:03:01;;;;;;;;;;;;;;;0.52;65.50;96610.69;6399081;27;19923;-63
2021/12/03 15:09:31;;;;;;;;;;;;;;;0.60;65.95;96588.84;6399893;27;19923;-65
2021/12/03 15:32:07;;;;;;;;;;;;;;;0.94;65.52;96638.78;6398767;27;19923;-65
2021/12/03 15:35:33;;;;;;;;;;;;;;;0.92;65.72;96630.19;6398573;27;19929;-64
2021/12/03 15:55:29;;;;;;;;;;;;;;;1.19;66.43;96647.50;6398490;27;19923;-64
2021/12/03 16:08:21;;;;;;;;;;;;;;;1.23;66.46;96661.19;6398360;27;20311;-66
2021/12/03 16:11:41;;;;;;;;;;;;;;;1.25;65.88;96657.66;6397639;27;20014;-64
2021/12/03 16:55:15;;;;;;;;;;;;;;;0.97;68.81;96680.13;6396865;27;20066;-67
2021/12/03 16:57:56;;;;;;;;;;;;;;;1.07;69.74;96684.13;6386230;27;19930;-68
2021/12/03 17:01:21;;;;;;;;;;;;;;;1.18;69.39;96682.06;6396364;27;19927;-65
2021/12/03 17:04:41;;;;;;;;;;;;;;;1.17;69.89;96702.84;6396602;27;19927;-64
2021/12/03 17:56:54;;;;;;;;;;;;;;;1.29;70.96;96791.44;6399778;27;19923;-63
2021/12/03 17:59:56;;;;;;;;;;;;;;;1.45;71.05;96772.84;6400205;27;19923;-64
2021/12/03 18:03:06;;;;;;;;;;;;;;;1.50;71.42;96783.91;6401533;27;19983;-64
2021/12/03 18:19:37;;;;;;;;;;;;;;;1.54;71.76;96822.69;6400847;27;20021;-64
2021/12/03 18:55:57;;;;;;;;;;;;;;;1.84;70.74;96865.88;6399099;27;19923;-64
2021/12/03 18:59:05;;;;;;;;;;;;;;;1.83;71.39;96866.81;6400282;27;19923;-63
2021/12/03 19:02:08;;;;;;;;;;;;;;;1.85;71.28;96875.41;6398899;27;19955;-64
2021/12/03 19:05:24;;;;;;;;;;;;;;;1.82;71.42;96871.16;6399030;27;19923;-64
2021/12/03 19:12:01;;;;;;;;;;;;;;;2.01;71.04;96890.44;6398713;27;19930;-63
2021/12/03 19:15:06;;;;;;;;;;;;;;;2.01;71.34;96887.84;6399706;27;19923;-66
2021/12/03 19:18:12;;;;;;;;;;;;;;;2.02;71.13;96896.47;6399755;27;19930;-63
2021/12/03 19:21:23;;;;;;;;;;;;;;;2.06;70.80;96885.09;6399483;27;19923;-63
2021/12/03 19:24:27;;;;;;;;;;;;;;;1.86;72.00;96896.09;6399543;27;19923;-64
2021/12/03 19:27:30;;;;;;;;;;;;;;;2.03;71.42;96904.19;6398716;27;19923;-63
2021/12/03 19:30:31;;;;;;;;;;;;;;;2.06;71.64;96905.03;6398489;27;19930;-63
2021/12/03 19:33:36;;;;;;;;;;;;;;;1.82;71.84;96898.84;6398961;27;19923;-64
2021/12/03 19:36:46;;;;;;;;;;;;;;;1.79;71.95;96902.38;6399036;27;19930;-63
2021/12/03 19:39:48;;;;;;;;;;;;;;;2.12;71.74;96908.25;6398388;27;19930;-65
2021/12/03 19:42:58;;;;;;;;;;;;;;;1.99;71.79;96914.75;6398154;27;19927;-65
2021/12/03 19:46:04;;;;;;;;;;;;;;;1.91;72.37;96914.13;6398203;27;19950;-64
2021/12/03 19:52:38;;;;;;;;;;;;;;;2.04;72.22;96899.88;6397860;27;20292;-63
2021/12/03 19:55:40;;;;;;;;;;;;;;;1.80;72.87;96911.84;6398644;27;19927;-64
2021/12/03 19:58:44;;;;;;;;;;;;;;;1.68;73.26;96907.03;6398873;27;19923;-63
2021/12/03 20:01:48;;;;;;;;;;;;;;;1.89;72.59;96915.91;6397705;27;19923;-65
2021/12/03 20:04:49;;;;;;;;;;;;;;;1.74;72.96;96915.47;6397797;27;19930;-64
2021/12/03 20:07:52;;;;;;;;;;;;;;;2.08;72.55;96906.66;6398251;27;19930;-63
2021/12/03 20:10:58;;;;;;;;;;;;;;;2.13;72.48;96919.53;6398320;27;19975;-64
2021/12/03 20:14:01;;;;;;;;;;;;;;;2.03;72.83;96913.75;6396895;27;19930;-64
2021/12/03 20:17:10;;;;;;;;;;;;;;;2.15;72.26;96921.19;6398132;27;19929;-64
2021/12/03 20:20:14;;;;;;;;;;;;;;;1.96;73.17;96918.28;6397387;27;19923;-65
2021/12/03 20:26:49;;;;;;;;;;;;;;;2.05;73.47;96934.47;6397353;27;20407;-64
2021/12/03 20:29:56;;;;;;;;;;;;;;;1.90;73.61;96943.56;6397273;27;20032;-64
2021/12/03 20:33:41;;;;;;;;;;;;;;;1.94;73.63;96935.63;6397845;27;19923;-65
2021/12/03 20:36:59;;;;;;;;;;;;;;;2.06;73.34;96946.53;6397897;27;19923;-63
2021/12/03 20:40:14;;;;;;;;;;;;;;;2.09;73.21;96960.28;6397732;27;20438;-65
2021/12/03 20:46:31;;;;;;;;;;;;;;;1.93;73.86;96943.47;6396479;27;19923;-64
2021/12/03 20:50:08;;;;;;;;;;;;;;;2.06;73.78;96965.56;6397261;27;19927;-63
2021/12/03 21:09:44;;;;;;;;;;;;;;;2.01;74.76;96993.41;6397213;27;19979;-63
2021/12/03 21:12:49;;;;;;;;;;;;;;;1.93;74.70;97010.94;6396464;27;19919;-64
2021/12/03 21:22:30;;;;;;;;;;;;;;;2.02;74.41;97011.53;6401886;27;20440;-63
2021/12/03 21:25:32;;;;;;;;;;;;;;;2.01;75.15;97011.59;6401873;27;20391;-63
2021/12/03 21:32:02;;;;;;;;;;;;;;;2.27;74.09;97010.81;6401906;27;19984;-63
2021/12/03 21:41:30;;;;;;;;;;;;;;;2.27;73.63;97030.75;6402243;27;20406;-64
2021/12/03 21:44:31;;;;;;;;;;;;;;;2.10;74.23;97037.25;6401392;27;20396;-63
2021/12/03 21:47:34;;;;;;;;;;;;;;;2.03;74.55;97033.97;6402063;27;20308;-64
2021/12/03 21:50:37;;;;;;;;;;;;;;;1.91;75.15;97049.06;6401891;27;20424;-63
2021/12/03 21:53:41;;;;;;;;;;;;;;;1.95;75.23;97046.34;6401587;27;19923;-63
2021/12/03 21:56:45;;;;;;;;;;;;;;;1.88;75.13;97043.94;6401389;27;19923;-62
2021/12/03 21:59:48;;;;;;;;;;;;;;;1.82;75.73;97049.31;6400584;27;20416;-62
2021/12/03 22:02:53;;;;;;;;;;;;;;;2.10;74.57;97065.81;6401662;27;19984;-63
2021/12/03 22:05:54;;;;;;;;;;;;;;;2.08;74.59;97062.41;6401725;27;20418;-64
2021/12/03 22:08:56;;;;;;;;;;;;;;;1.89;75.07;97066.41;6400428;27;19923;-63
2021/12/03 22:11:57;;;;;;;;;;;;;;;1.98;74.84;97060.94;6400258;27;19930;-64
2021/12/03 22:14:58;;;;;;;;;;;;;;;2.07;74.64;97071.09;6400059;27;19946;-63
2021/12/03 22:18:00;;;;;;;;;;;;;;;2.08;74.53;97092.72;6400594;27;19973;-64
2021/12/03 22:21:07;;;;;;;;;;;;;;;1.85;75.11;97078.63;6401046;27;19923;-63
2021/12/03 22:24:09;;;;;;;;;;;;;;;1.96;75.40;97088.72;6400208;27;19929;-62
2021/12/03 22:27:12;;;;;;;;;;;;;;;1.96;75.22;97071.38;6400327;27;19919;-63
2021/12/03 22:30:13;;;;;;;;;;;;;;;1.94;75.71;97080.94;6399827;27;20044;-63
2021/12/03 22:33:14;;;;;;;;;;;;;;;1.79;75.79;97094.34;6400835;27;19923;-63
2021/12/03 22:36:15;;;;;;;;;;;;;;;1.95;76.09;97093.06;6400105;27;20420;-63
2021/12/03 22:39:16;;;;;;;;;;;;;;;2.06;75.77;97095.34;6401002;27;20276;-63
2021/12/03 22:42:20;;;;;;;;;;;;;;;2.01;76.08;97097.22;6399837;27;19919;-64
2021/12/03 22:45:28;;;;;;;;;;;;;;;2.06;75.49;97103.13;6400706;27;19930;-62
2021/12/03 22:48:36;;;;;;;;;;;;;;;2.03;75.53;97103.22;6400551;27;20315;-63
2021/12/03 22:51:45;;;;;;;;;;;;;;;2.09;75.95;97100.44;6400441;27;19946;-63
2021/12/03 22:54:47;;;;;;;;;;;;;;;2.01;75.62;97108.47;6399341;27;19930;-63
2021/12/03 22:57:53;;;;;;;;;;;;;;;2.04;75.80;97110.13;6400040;27;19923;-63
2021/12/03 23:01:07;;;;;;;;;;;;;;;2.02;75.86;97115.34;6400197;27;19923;-63
2021/12/03 23:04:08;;;;;;;;;;;;;;;1.95;76.54;97118.13;6398800;27;19922;-64
2021/12/03 23:07:17;;;;;;;;;;;;;;;2.13;75.82;97117.66;6399913;27;20013;-63
2021/12/03 23:10:18;;;;;;;;;;;;;;;2.01;76.04;97118.00;6400096;27;20401;-64
2021/12/03 23:13:23;;;;;;;;;;;;;;;2.13;76.42;97115.06;6399894;27;19923;-63
2021/12/03 23:16:24;;;;;;;;;;;;;;;2.06;76.62;97123.03;6399820;27;20101;-62
2021/12/03 23:19:30;;;;;;;;;;;;;;;2.25;76.01;97117.28;6399543;27;20338;-63
2021/12/03 23:22:31;;;;;;;;;;;;;;;2.17;76.02;97129.63;6397815;27;19923;-63
2021/12/03 23:25:36;;;;;;;;;;;;;;;2.27;75.83;97129.41;6399632;27;20387;-63
2021/12/03 23:28:37;;;;;;;;;;;;;;;2.05;76.19;97123.94;6398602;27;19922;-62
2021/12/03 23:31:39;;;;;;;;;;;;;;;1.98;76.78;97125.84;6398564;27;19946;-63
2021/12/03 23:34:40;;;;;;;;;;;;;;;2.08;76.81;97124.69;6399293;27;20352;-64
2021/12/03 23:37:41;;;;;;;;;;;;;;;2.29;76.17;97132.78;6399663;27;20273;-62
2021/12/03 23:40:42;;;;;;;;;;;;;;;2.14;76.24;97134.91;6397900;27;19923;-62
2021/12/03 23:43:43;;;;;;;;;;;;;;;2.02;76.29;97135.25;6398422;27;20392;-64
2021/12/03 23:46:44;;;;;;;;;;;;;;;2.04;76.73;97138.66;6399123;27;19922;-62
2021/12/03 23:49:47;;;;;;;;;;;;;;;2.12;76.96;97144.47;6398645;27;19930;-62
2021/12/03 23:52:48;;;;;;;;;;;;;;;2.13;77.25;97148.78;6398867;27;19923;-63
2021/12/03 23:55:51;;;;;;;;;;;;;;;1.96;77.15;97136.28;6398834;27;19945;-64
2021/12/03 23:58:52;;;;;;;;;;;;;;;2.06;76.91;97139.47;6398014;27;19925;-64
